Time;durP1;ratioP1;P1;durP2;ratioP2;P2;SDS_P1;SDS_P2;PMS_P1;PMS_P2;Temp;Humidity;BMP_temperature;BMP_pressure;BME280_temperature;BME280_humidity;BME280_pressure;Samples;Min_cycle;Max_cycle;Signal;HPM_P1;HPM_P2
2022/06/18 00:01:33;;;;;;;;;;;;;;;;;;5025141;28;19947;-81
2022/06/18 00:04:09;;;;;;;;;;;14.60;99.90;;;;;;5026130;28;19916;-81
2022/06/18 00:06:35;;;;;;;;;;;;;;;;;;5034768;28;19993;-82
2022/06/18 00:09:01;;;;;;;;;;;;;;;;;;5025327;28;21560;-81
2022/06/18 00:14:11;;;;;;;;;;;;;;;;;;5024428;28;19916;-81
2022/06/18 00:16:37;;;;;;;;;;;;;;;;;;5029987;28;19966;-81
2022/06/18 00:19:02;;;;;;;;;;;14.60;99.90;;;;;;5024524;28;19913;-80
2022/06/18 00:21:28;;;;;;;;;;;;;;;;;;5030306;28;20292;-80
2022/06/18 00:23:54;;;;;;;;;;;;;;;;;;5022619;28;19944;-82
2022/06/18 00:26:20;;;;;;;;;;;;;;;;;;5032307;28;20543;-80
2022/06/18 00:28:46;;;;;;;;;;;;;;;;;;5028098;28;19916;-81
2022/06/18 00:31:12;;;;;;;;;;;;;;;;;;5027534;28;19924;-82
2022/06/18 00:33:40;;;;;;;;;;;14.40;99.90;;;;;;5027321;28;20613;-81
2022/06/18 00:36:07;;;;;;;;;;;;;;;;;;5024882;28;19920;-82
2022/06/18 00:38:33;;;;;;;;;;;;;;;;;;5025113;28;20867;-81
2022/06/18 00:40:59;;;;;;;;;;;;;;;;;;5029536;28;19924;-81
2022/06/18 00:43:25;;;;;;;;;;;;;;;;;;5024630;28;19917;-82
2022/06/18 00:45:51;;;;;;;;;;;;;;;;;;5026621;28;19918;-81
2022/06/18 00:48:21;;;;;;;;;;;14.10;99.90;;;;;;5021681;28;19917;-81
2022/06/18 00:50:47;;;;;;;;;;;;;;;;;;5025428;28;19938;-82
2022/06/18 00:53:13;;;;;;;;;;;;;;;;;;5023821;28;19985;-83
2022/06/18 00:55:39;;;;;;;;;;;;;;;;;;5043685;28;19913;-82
2022/06/18 00:58:05;;;;;;;;;;;;;;;;;;5048375;28;19913;-82
2022/06/18 01:00:31;;;;;;;;;;;;;;;;;;5052695;28;19909;-82
2022/06/18 01:02:56;;;;;;;;;;;;;;;;;;5036168;28;19955;-81
2022/06/18 01:05:23;;;;;;;;;;;;;;;;;;5030263;28;20007;-81
2022/06/18 01:07:49;;;;;;;;;;;;;;;;;;5028862;28;19920;-81
2022/06/18 01:10:35;;;;;;;;;;;14.20;99.90;;;;;;5028194;28;19913;-81
2022/06/18 01:13:01;;;;;;;;;;;;;;;;;;5026082;28;20420;-83
2022/06/18 01:15:27;;;;;;;;;;;;;;;;;;5027931;28;19953;-81
2022/06/18 01:17:53;;;;;;;;;;;;;;;;;;5029020;28;20501;-81
2022/06/18 01:20:19;;;;;;;;;;;;;;;;;;5032643;28;19909;-81
2022/06/18 01:22:45;;;;;;;;;;;;;;;;;;5031397;28;19917;-81
2022/06/18 01:25:11;;;;;;;;;;;;;;;;;;5031752;28;19917;-82
2022/06/18 01:27:37;;;;;;;;;;;;;;;;;;5027167;28;20028;-80
2022/06/18 01:30:02;;;;;;;;;;;;;;;;;;5032095;28;19917;-82
2022/06/18 01:32:28;;;;;;;;;;;13.80;99.90;;;;;;5029856;28;20397;-81
2022/06/18 01:34:54;;;;;;;;;;;;;;;;;;5030998;28;20017;-80
2022/06/18 01:37:19;;;;;;;;;;;13.80;99.90;;;;;;5029565;28;19917;-80
2022/06/18 01:39:46;;;;;;;;;;;13.90;99.90;;;;;;5032712;28;19970;-81
2022/06/18 01:42:12;;;;;;;;;;;;;;;;;;5032631;28;19925;-81
2022/06/18 01:44:39;;;;;;;;;;;;;;;;;;5028764;28;20622;-81
2022/06/18 01:47:05;;;;;;;;;;;;;;;;;;5026702;28;20396;-81
2022/06/18 01:49:33;;;;;;;;;;;13.80;99.90;;;;;;5026018;28;19909;-80
2022/06/18 01:52:00;;;;;;;;;;;13.80;99.90;;;;;;5034660;28;20578;-80
2022/06/18 01:54:27;;;;;;;;;;;13.80;99.90;;;;;;5030397;28;19913;-83
2022/06/18 01:56:53;;;;;;;;;;;;;;;;;;5035102;28;19917;-82
2022/06/18 01:59:19;;;;;;;;;;;;;;;;;;5034178;28;20571;-83
2022/06/18 02:01:45;;;;;;;;;;;;;;;;;;5028172;28;19956;-83
2022/06/18 02:04:12;;;;;;;;;;;13.80;99.90;;;;;;5029969;28;20453;-80
2022/06/18 02:06:38;;;;;;;;;;;;;;;;;;5041451;28;19912;-80
2022/06/18 02:09:04;;;;;;;;;;;;;;;;;;5027236;28;19910;-82
2022/06/18 02:11:30;;;;;;;;;;;;;;;;;;5041233;28;19975;-83
2022/06/18 02:13:56;;;;;;;;;;;;;;;;;;5029040;28;20265;-81
2022/06/18 02:16:21;;;;;;;;;;;;;;;;;;5027823;28;20010;-81
2022/06/18 02:18:47;;;;;;;;;;;;;;;;;;5028200;28;19910;-81
2022/06/18 02:21:14;;;;;;;;;;;13.70;99.90;;;;;;5032424;28;20447;-81
2022/06/18 02:23:39;;;;;;;;;;;13.70;99.90;;;;;;5028042;28;19972;-82
2022/06/18 02:26:07;;;;;;;;;;;;;;;;;;5034101;28;19958;-80
2022/06/18 02:28:36;;;;;;;;;;;13.70;99.90;;;;;;5031454;28;19909;-81
2022/06/18 02:31:01;;;;;;;;;;;;;;;;;;5026241;28;19991;-81
2022/06/18 02:33:28;;;;;;;;;;;;;;;;;;5022734;28;19913;-81
2022/06/18 02:35:54;;;;;;;;;;;;;;;;;;5024623;28;20008;-81
2022/06/18 02:38:21;;;;;;;;;;;13.60;99.90;;;;;;5026476;28;19941;-79
2022/06/18 02:40:46;;;;;;;;;;;;;;;;;;5020949;28;19917;-80
2022/06/18 02:43:13;;;;;;;;;;;13.70;99.90;;;;;;5031619;28;19909;-80
2022/06/18 02:45:39;;;;;;;;;;;13.80;99.90;;;;;;5027546;28;20377;-80
2022/06/18 02:48:05;;;;;;;;;;;;;;;;;;5028621;28;19908;-81
2022/06/18 02:50:31;;;;;;;;;;;;;;;;;;5023260;28;19913;-80
2022/06/18 02:53:00;;;;;;;;;;;13.70;99.90;;;;;;5030513;28;20298;-79
2022/06/18 02:55:26;;;;;;;;;;;;;;;;;;5017493;28;19917;-80
2022/06/18 02:57:52;;;;;;;;;;;;;;;;;;5027305;28;19924;-79
2022/06/18 03:00:17;;;;;;;;;;;;;;;;;;5024003;28;19916;-79
2022/06/18 03:02:43;;;;;;;;;;;;;;;;;;5024400;28;19913;-80
2022/06/18 03:05:16;;;;;;;;;;;13.70;99.90;;;;;;5023735;28;20273;-80
2022/06/18 03:07:42;;;;;;;;;;;13.70;99.90;;;;;;5030174;28;19909;-80
2022/06/18 03:12:53;;;;;;;;;;;13.50;99.90;;;;;;5027071;28;20283;-80
2022/06/18 03:15:18;;;;;;;;;;;13.60;99.90;;;;;;5025630;28;19912;-80
2022/06/18 03:17:44;;;;;;;;;;;13.60;99.90;;;;;;5032601;28;19962;-79
2022/06/18 03:20:10;;;;;;;;;;;;;;;;;;5026843;28;19916;-82
2022/06/18 03:22:35;;;;;;;;;;;13.30;99.90;;;;;;5027841;28;20397;-81
2022/06/18 03:25:01;;;;;;;;;;;;;;;;;;5025485;28;19932;-81
2022/06/18 03:27:27;;;;;;;;;;;13.60;99.90;;;;;;5022599;28;19910;-81
2022/06/18 03:29:53;;;;;;;;;;;;;;;;;;5025685;28;19913;-80
2022/06/18 03:32:18;;;;;;;;;;;13.60;99.90;;;;;;5026249;28;20325;-80
2022/06/18 03:34:44;;;;;;;;;;;13.50;99.90;;;;;;5023745;28;19955;-80
2022/06/18 03:37:10;;;;;;;;;;;;;;;;;;5030989;28;19909;-81
2022/06/18 03:39:35;;;;;;;;;;;13.50;99.90;;;;;;5026720;28;19913;-81
2022/06/18 03:42:01;;;;;;;;;;;;;;;;;;5029577;28;19920;-81
2022/06/18 03:44:27;;;;;;;;;;;13.60;99.90;;;;;;5022102;28;19909;-80
2022/06/18 03:46:53;;;;;;;;;;;;;;;;;;5025573;28;19921;-80
2022/06/18 03:49:19;;;;;;;;;;;;;;;;;;5020145;28;19909;-80
2022/06/18 03:51:45;;;;;;;;;;;;;;;;;;5025973;28;19967;-80
2022/06/18 03:54:11;;;;;;;;;;;;;;;;;;5022213;28;19956;-81
2022/06/18 03:56:37;;;;;;;;;;;;;;;;;;5026133;28;19932;-80
2022/06/18 03:59:02;;;;;;;;;;;;;;;;;;5023035;28;19912;-81
2022/06/18 04:01:32;;;;;;;;;;;13.90;99.90;;;;;;5025748;28;19925;-79
2022/06/18 04:03:58;;;;;;;;;;;;;;;;;;5019930;28;20004;-81
2022/06/18 04:06:24;;;;;;;;;;;;;;;;;;5022501;28;20007;-80
2022/06/18 04:08:49;;;;;;;;;;;13.80;99.90;;;;;;5031816;28;20377;-81
2022/06/18 04:11:15;;;;;;;;;;;13.90;99.90;;;;;;5020874;28;19999;-81
2022/06/18 04:13:41;;;;;;;;;;;;;;;;;;5019758;28;19918;-79
2022/06/18 04:16:07;;;;;;;;;;;;;;;;;;5020645;28;19935;-81
2022/06/18 04:18:33;;;;;;;;;;;;;;;;;;5020873;28;19913;-81
2022/06/18 04:20:59;;;;;;;;;;;;;;;;;;5022099;28;19921;-80
2022/06/18 04:23:25;;;;;;;;;;;;;;;;;;5022328;28;19924;-80
2022/06/18 04:25:50;;;;;;;;;;;;;;;;;;5023552;28;19971;-79
2022/06/18 04:28:17;;;;;;;;;;;14.20;99.90;;;;;;5025392;28;19949;-80
2022/06/18 04:30:43;;;;;;;;;;;;;;;;;;5019662;28;19919;-80
2022/06/18 04:33:09;;;;;;;;;;;;;;;;;;5022744;28;19909;-81
2022/06/18 04:35:35;;;;;;;;;;;;;;;;;;5021766;28;20455;-81
2022/06/18 04:38:01;;;;;;;;;;;14.60;99.90;;;;;;5017495;28;19995;-80
2022/06/18 04:40:31;;;;;;;;;;;;;;;;;;5024321;28;19913;-80
2022/06/18 04:43:08;;;;;;;;;;;14.50;99.90;;;;;;5020365;28;20900;-80
2022/06/18 04:45:34;;;;;;;;;;;15.70;99.90;;;;;;5020143;28;19913;-80
2022/06/18 04:48:00;;;;;;;;;;;14.60;99.90;;;;;;5030378;28;19967;-81
2022/06/18 04:50:26;;;;;;;;;;;;;;;;;;5020462;28;19956;-82
2022/06/18 04:52:52;;;;;;;;;;;;;;;;;;5025482;28;20381;-81
2022/06/18 04:55:17;;;;;;;;;;;15.20;99.90;;;;;;5026177;28;19955;-80
2022/06/18 04:57:43;;;;;;;;;;;15.40;99.90;;;;;;5027563;28;20255;-79
2022/06/18 05:00:09;;;;;;;;;;;;;;;;;;5026353;28;19905;-82
2022/06/18 05:02:35;;;;;;;;;;;;;;;;;;5030703;28;20423;-81
2022/06/18 05:05:01;;;;;;;;;;;16.40;99.90;;;;;;5024244;28;19905;-80
2022/06/18 05:07:27;;;;;;;;;;;;;;;;;;5029503;28;19916;-80
2022/06/18 05:09:52;;;;;;;;;;;16.80;99.90;;;;;;5027563;28;19983;-79
2022/06/18 05:12:18;;;;;;;;;;;;;;;;;;5025543;28;19913;-79
2022/06/18 05:14:44;;;;;;;;;;;;;;;;;;5026931;28;20456;-80
2022/06/18 05:17:14;;;;;;;;;;;17.00;99.90;;;;;;5030736;28;19909;-81
2022/06/18 05:19:39;;;;;;;;;;;17.00;99.90;;;;;;5017326;28;19913;-81
2022/06/18 05:22:05;;;;;;;;;;;;;;;;;;5033645;28;19921;-81
2022/06/18 05:24:31;;;;;;;;;;;19.50;99.90;;;;;;5023890;28;19905;-82
2022/06/18 05:26:57;;;;;;;;;;;17.50;99.90;;;;;;5024514;28;19931;-81
2022/06/18 05:29:23;;;;;;;;;;;;;;;;;;5016443;28;19917;-82
2022/06/18 05:31:48;;;;;;;;;;;17.60;99.90;;;;;;5022244;28;19917;-79
2022/06/18 05:34:14;;;;;;;;;;;17.40;99.90;;;;;;5030147;28;19983;-79
2022/06/18 05:36:40;;;;;;;;;;;17.60;99.90;;;;;;5027341;28;19916;-78
2022/06/18 05:39:06;;;;;;;;;;;17.80;99.90;;;;;;5015236;28;19952;-79
2022/06/18 05:41:31;;;;;;;;;;;17.80;99.90;;;;;;5025008;28;19975;-77
2022/06/18 05:43:57;;;;;;;;;;;18.00;99.90;;;;;;5023902;28;19944;-78
2022/06/18 05:46:23;;;;;;;;;;;;;;;;;;5022702;28;19960;-79
2022/06/18 05:48:49;;;;;;;;;;;18.00;99.90;;;;;;5016405;28;19919;-78
2022/06/18 05:51:14;;;;;;;;;;;18.20;99.90;;;;;;5020993;28;20530;-79
2022/06/18 05:53:40;;;;;;;;;;;;;;;;;;5023513;28;19959;-80
2022/06/18 05:56:06;;;;;;;;;;;;;;;;;;5023503;28;20361;-79
2022/06/18 05:58:32;;;;;;;;;;;;;;;;;;5020152;28;19923;-79
2022/06/18 06:00:57;;;;;;;;;;;20.00;99.90;;;;;;5019050;28;19921;-78
2022/06/18 06:03:23;;;;;;;;;;;;;;;;;;5027718;28;20393;-79
2022/06/18 06:05:48;;;;;;;;;;;20.90;99.90;;;;;;5027334;28;19913;-79
2022/06/18 06:08:14;;;;;;;;;;;21.40;99.90;;;;;;5021972;28;19918;-79
2022/06/18 06:13:25;;;;;;;;;;;24.40;98.10;;;;;;5027227;28;19959;-79
2022/06/18 06:15:52;;;;;;;;;;;25.40;95.00;;;;;;5028687;28;19932;-79
2022/06/18 06:18:18;;;;;;;;;;;25.10;93.90;;;;;;5023513;28;19955;-79
2022/06/18 06:20:44;;;;;;;;;;;26.50;91.60;;;;;;5019179;28;19988;-79
2022/06/18 06:23:10;;;;;;;;;;;26.30;90.80;;;;;;5030414;28;19912;-79
2022/06/18 06:25:36;;;;;;;;;;;27.90;82.40;;;;;;5034091;28;19909;-79
2022/06/18 06:28:03;;;;;;;;;;;28.70;77.00;;;;;;5030832;28;20039;-82
2022/06/18 06:30:28;;;;;;;;;;;29.60;76.00;;;;;;5039570;28;19897;-81
2022/06/18 06:32:54;;;;;;;1.05;0.63;;;;;;;;;;5033937;28;19999;-81
2022/06/18 06:35:20;;;;;;;;;;;32.70;60.30;;;;;;5027523;28;20042;-80
2022/06/18 06:37:45;;;;;;;;;;;33.80;56.00;;;;;;5024691;28;19924;-80
2022/06/18 06:40:13;;;;;;;;;;;33.90;56.20;;;;;;5040913;28;20003;-81
2022/06/18 06:42:47;;;;;;;;;;;35.40;51.30;;;;;;5026186;28;20645;-78
2022/06/18 06:45:17;;;;;;;;;;;36.60;49.00;;;;;;5028323;28;19916;-79
2022/06/18 06:47:43;;;;;;;;;;;36.00;47.60;;;;;;5029554;28;19917;-79
2022/06/18 06:50:10;;;;;;;0.82;0.60;;;36.60;46.30;;;;;;5033304;28;19920;-81
2022/06/18 06:52:37;;;;;;;4.05;0.73;;;;;;;;;;5031017;28;20030;-80
2022/06/18 06:57:49;;;;;;;;;;;37.90;43.90;;;;;;5033626;28;19967;-80
2022/06/18 07:00:15;;;;;;;;;;;37.50;42.70;;;;;;5031583;28;19912;-81
2022/06/18 07:02:40;;;;;;;;;;;38.30;43.90;;;;;;5036493;28;19925;-80
2022/06/18 07:05:06;;;;;;;;;;;38.70;43.10;;;;;;5033193;28;19919;-81
2022/06/18 07:07:32;;;;;;;1.27;0.40;;;;;;;;;;5027745;28;19956;-81
2022/06/18 07:09:58;;;;;;;0.55;0.30;;;;;;;;;;5023473;28;20017;-81
2022/06/18 07:12:24;;;;;;;0.90;0.40;;;;;;;;;;5025961;28;20836;-80
2022/06/18 07:14:50;;;;;;;0.50;0.32;;;;;;;;;;5027238;28;20422;-80
2022/06/18 07:17:17;;;;;;;1.48;0.70;;;37.60;52.90;;;;;;5026026;28;20040;-79
2022/06/18 07:19:43;;;;;;;0.77;0.57;;;;;;;;;;5017184;28;20033;-81
2022/06/18 07:22:10;;;;;;;0.73;0.50;;;37.10;44.90;;;;;;5020382;28;20111;-80
2022/06/18 07:24:37;;;;;;;0.77;0.45;;;36.50;46.20;;;;;;5027533;28;20033;-81
2022/06/18 07:27:03;;;;;;;1.50;0.50;;;;;;;;;;5025870;28;20156;-80
2022/06/18 07:29:29;;;;;;;0.60;0.50;;;;;;;;;;5019529;28;20091;-82
2022/06/18 07:31:55;;;;;;;0.88;0.43;;;;;;;;;;5032291;28;20029;-84
2022/06/18 07:34:21;;;;;;;0.70;0.40;;;;;;;;;;5031591;28;20030;-81
2022/06/18 07:36:47;;;;;;;1.02;0.50;;;;;;;;;;5030452;28;20108;-82
2022/06/18 07:39:13;;;;;;;1.00;0.50;;;;;;;;;;5034309;28;20063;-80
2022/06/18 07:41:48;;;;;;;1.92;0.70;;;36.50;54.90;;;;;;5037699;28;20052;-81
2022/06/18 07:44:14;;;;;;;0.77;0.55;;;;;;;;;;5030618;28;20030;-81
2022/06/18 07:46:39;;;;;;;;;;;36.90;41.20;;;;;;5038153;28;20034;-82
2022/06/18 07:49:06;;;;;;;;;;;;;;;;;;5026687;28;19967;-82
2022/06/18 07:51:32;;;;;;;;;;;36.40;44.50;;;;;;5034177;28;20317;-81
2022/06/18 07:53:57;;;;;;;;;;;36.00;40.20;;;;;;5029948;28;20137;-82
2022/06/18 07:56:23;;;;;;;;;;;36.90;41.80;;;;;;5029546;28;19917;-81
2022/06/18 07:58:48;;;;;;;;;;;36.30;42.80;;;;;;5037001;28;20305;-83
2022/06/18 08:01:14;;;;;;;;;;;36.90;41.10;;;;;;5036221;28;19921;-82
2022/06/18 08:03:39;;;;;;;;;;;36.10;41.50;;;;;;5029913;28;19994;-82
2022/06/18 08:06:07;;;;;;;;;;;36.00;40.20;;;;;;5033719;28;19908;-83
2022/06/18 08:08:33;;;;;;;;;;;36.70;42.80;;;;;;5031449;28;20075;-82
2022/06/18 08:10:58;;;;;;;;;;;36.40;42.00;;;;;;5027513;28;19968;-81
2022/06/18 08:13:23;;;;;;;;;;;35.20;39.90;;;;;;5033613;28;20361;-81
2022/06/18 08:15:49;;;;;;;;;;;35.10;41.20;;;;;;5033576;28;19917;-80
2022/06/18 08:18:15;;;;;;;;;;;34.60;42.80;;;;;;5032636;28;20289;-83
2022/06/18 08:20:41;;;;;;;;;;;34.70;43.10;;;;;;5030429;28;19913;-82
2022/06/18 08:23:07;;;;;;;;;;;35.60;43.70;;;;;;5035421;28;19908;-82
2022/06/18 08:25:34;;;;;;;;;;;35.90;44.30;;;;;;5037101;28;20407;-82
2022/06/18 08:28:01;;;;;;;;;;;35.00;42.80;;;;;;5033160;28;19924;-82
2022/06/18 08:30:27;;;;;;;;;;;35.00;43.30;;;;;;5033221;28;20209;-81
2022/06/18 08:32:52;;;;;;;;;;;34.60;43.20;;;;;;5023621;28;19917;-80
2022/06/18 08:35:18;;;;;;;;;;;34.20;44.40;;;;;;5031293;28;19924;-80
2022/06/18 08:37:44;;;;;;;;;;;34.50;44.40;;;;;;5022224;28;19944;-81
2022/06/18 08:40:35;;;;;;;;;;;35.20;43.60;;;;;;5027567;28;20804;-83
2022/06/18 08:43:19;;;;;;;;;;;35.80;41.70;;;;;;5038815;28;19921;-81
2022/06/18 08:46:06;;;;;;;;;;;37.90;38.40;;;;;;5035726;28;19956;-82
2022/06/18 08:48:50;;;;;;;;;;;39.10;38.90;;;;;;5036487;28;19979;-81
2022/06/18 08:51:16;;;;;;;;;;;39.00;38.20;;;;;;5033358;28;19909;-82
2022/06/18 08:54:00;;;;;;;;;;;39.80;36.70;;;;;;5037253;28;19949;-81
2022/06/18 08:56:25;;;;;;;;;;;40.30;36.40;;;;;;5033732;28;19917;-81
2022/06/18 08:58:54;;;;;;;;;;;41.50;34.80;;;;;;5038630;28;20036;-81
2022/06/18 09:01:25;;;;;;;;;;;41.70;34.10;;;;;;5031117;28;19952;-81
2022/06/18 09:04:09;;;;;;;;;;;42.10;33.80;;;;;;5031891;28;19976;-83
2022/06/18 09:06:58;;;;;;;;;;;42.20;33.30;;;;;;5033257;28;19948;-81
2022/06/18 09:09:42;;;;;;;;;;;42.40;32.70;;;;;;5030514;28;19935;-80
2022/06/18 09:12:22;;;;;;;;;;;42.70;30.90;;;;;;5025956;28;19912;-83
2022/06/18 09:14:53;;;;;;;;;;;42.80;31.50;;;;;;5028478;28;19920;-82
2022/06/18 09:17:19;;;;;;;;;;;42.70;29.50;;;;;;5024140;28;19913;-82
2022/06/18 09:19:54;;;;;;;5.07;1.60;;;43.10;40.30;;;;;;5029640;28;19924;-83
2022/06/18 09:22:20;;;;;;;1.05;0.75;;;43.00;29.00;;;;;;5034774;28;20041;-84
2022/06/18 09:24:48;;;;;;;0.73;0.40;;;42.90;30.60;;;;;;5038710;28;20060;-83
2022/06/18 09:27:27;;;;;;;0.63;0.38;;;42.20;31.40;;;;;;5037465;28;20126;-83
2022/06/18 09:30:08;;;;;;;0.63;0.30;;;41.50;31.40;;;;;;5043044;28;20033;-83
2022/06/18 09:32:44;;;;;;;0.40;0.37;;;41.10;32.60;;;;;;5035095;28;20033;-84
2022/06/18 09:35:29;;;;;;;;;;;40.20;33.00;;;;;;5034095;28;20093;-84
2022/06/18 09:38:04;;;;;;;;;;;39.00;33.30;;;;;;5020120;28;19913;-82
2022/06/18 09:40:41;;;;;;;;;;;37.80;35.50;;;;;;5027013;28;20550;-83
2022/06/18 09:43:14;;;;;;;;;;;37.20;35.50;;;;;;5024286;28;19979;-82
2022/06/18 09:45:45;;;;;;;;;;;35.70;37.20;;;;;;5028379;28;19939;-82
2022/06/18 09:48:12;;;;;;;;;;;35.80;36.30;;;;;;5029015;28;19917;-80
2022/06/18 09:50:41;;;;;;;;;;;34.80;38.50;;;;;;5029639;28;19920;-82
2022/06/18 09:53:20;;;;;;;;;;;34.30;37.20;;;;;;5029415;28;19909;-81
2022/06/18 09:55:51;;;;;;;;;;;34.00;36.50;;;;;;5030702;28;19913;-79
2022/06/18 09:58:22;;;;;;;;;;;34.10;38.00;;;;;;5030883;28;20385;-83
2022/06/18 10:00:48;;;;;;;;;;;33.60;37.50;;;;;;5040860;28;19944;-82
2022/06/18 10:08:53;;;;;;;;;;;32.90;39.90;;;;;;5035232;28;19963;-81
2022/06/18 10:11:20;;;;;;;;;;;32.60;41.60;;;;;;5028845;28;19917;-83
2022/06/18 10:13:49;;;;;;;;;;;32.90;40.30;;;;;;5030302;28;19915;-84
2022/06/18 10:16:35;;;;;;;;;;;32.90;40.80;;;;;;5018553;28;19913;-83
2022/06/18 10:19:00;;;;;;;;;;;33.50;39.10;;;;;;5029977;28;19909;-84
2022/06/18 10:21:37;;;;;;;;;;;32.90;41.10;;;;;;5033562;28;19917;-84
2022/06/18 10:24:15;;;;;;;;;;;33.20;39.20;;;;;;5021987;28;20474;-82
2022/06/18 10:26:46;;;;;;;;;;;33.50;39.60;;;;;;5032325;28;19909;-82
2022/06/18 10:29:27;;;;;;;;;;;33.00;39.10;;;;;;5023082;28;19924;-82
2022/06/18 10:32:03;;;;;;;;;;;32.90;41.30;;;;;;5029701;28;20023;-82
2022/06/18 10:34:31;;;;;;;;;;;33.10;38.60;;;;;;5027724;28;19908;-83
2022/06/18 10:37:15;;;;;;;;;;;32.70;41.90;;;;;;5025534;28;19916;-83
2022/06/18 10:40:03;;;;;;;;;;;32.80;41.40;;;;;;5036128;28;19916;-83
2022/06/18 10:42:55;;;;;;;;;;;32.90;40.50;;;;;;5033236;28;19918;-82
2022/06/18 10:45:29;;;;;;;;;;;33.00;42.40;;;;;;5029442;28;19924;-80
2022/06/18 10:47:55;;;;;;;;;;;33.00;42.10;;;;;;5036826;28;19916;-85
2022/06/18 10:50:21;;;;;;;;;;;29.10;37.40;;;;;;5039740;28;19952;-85
2022/06/18 10:53:01;;;;;;;;;;;33.20;38.70;;;;;;5028461;28;19980;-82
2022/06/18 10:55:26;;;;;;;;;;;33.10;40.90;;;;;;5031602;28;19917;-83
2022/06/18 10:57:52;;;;;;;;;;;32.70;41.20;;;;;;5024970;28;19916;-82
2022/06/18 11:00:23;;;;;;;;;;;32.80;38.50;;;;;;5035804;28;19980;-82
2022/06/18 11:02:50;;;;;;;;;;;32.70;41.00;;;;;;5034075;28;19918;-81
2022/06/18 11:05:20;;;;;;;;;;;32.70;39.30;;;;;;5037080;28;19983;-81
2022/06/18 11:07:49;;;;;;;;;;;32.80;37.90;;;;;;5034276;28;19968;-83
2022/06/18 11:10:32;;;;;;;;;;;32.80;38.90;;;;;;5035689;28;20342;-81
2022/06/18 11:13:00;;;;;;;;;;;33.30;40.90;;;;;;5033575;28;19913;-83
2022/06/18 11:15:28;;;;;;;;;;;32.90;38.50;;;;;;5032181;28;19909;-82
2022/06/18 11:17:53;;;;;;;;;;;32.90;38.80;;;;;;5039606;28;19919;-83
2022/06/18 11:20:23;;;;;;;;;;;32.90;38.00;;;;;;5035101;28;19952;-81
2022/06/18 11:22:57;;;;;;;;;;;33.10;39.40;;;;;;5035581;28;20523;-82
2022/06/18 11:25:31;;;;;;;;;;;33.10;36.60;;;;;;5034987;28;19913;-81
2022/06/18 11:27:58;;;;;;;;;;;33.00;36.30;;;;;;5040632;28;19913;-81
2022/06/18 11:30:38;;;;;;;;;;;32.90;36.30;;;;;;5038656;28;19952;-82
2022/06/18 11:33:05;;;;;;;;;;;33.20;34.80;;;;;;5038166;28;19913;-82
2022/06/18 11:35:32;;;;;;;;;;;33.50;36.60;;;;;;5026322;28;19944;-83
2022/06/18 11:38:16;;;;;;;;;;;33.10;37.60;;;;;;5034679;28;20127;-81
2022/06/18 11:40:50;;;;;;;;;;;33.30;38.90;;;;;;5050372;28;19909;-82
2022/06/18 11:43:30;;;;;;;;;;;33.30;35.20;;;;;;5047070;28;20134;-81
2022/06/18 11:45:58;;;;;;;;;;;33.60;37.20;;;;;;5051685;28;19913;-81
2022/06/18 11:48:32;;;;;;;;;;;33.30;36.90;;;;;;5041875;28;20271;-82
2022/06/18 11:51:05;;;;;;;;;;;33.40;38.30;;;;;;5032167;28;19917;-81
2022/06/18 11:53:43;;;;;;;;;;;33.30;36.80;;;;;;5040658;28;19935;-81
2022/06/18 11:56:30;;;;;;;;;;;33.20;34.30;;;;;;5043925;28;19917;-81
2022/06/18 11:59:11;;;;;;;;;;;33.20;37.20;;;;;;5037212;28;20634;-82
2022/06/18 12:01:42;;;;;;;;;;;33.90;36.80;;;;;;5034136;28;19921;-84
2022/06/18 12:04:14;;;;;;;;;;;33.30;37.40;;;;;;5039240;28;20065;-83
2022/06/18 12:06:42;;;;;;;;;;;33.60;37.80;;;;;;5040330;28;19908;-84
2022/06/18 12:09:11;;;;;;;;;;;33.40;36.80;;;;;;5030911;28;20035;-83
2022/06/18 12:11:45;;;;;;;;;;;33.50;37.90;;;;;;5028195;28;19927;-82
2022/06/18 12:14:34;;;;;;;;;;;33.50;38.30;;;;;;5027454;28;19917;-83
2022/06/18 12:17:05;;;;;;;;;;;33.70;36.70;;;;;;5007882;28;19909;-83
2022/06/18 12:19:30;;;;;;;;;;;33.60;37.90;;;;;;5032061;28;19909;-84
2022/06/18 12:21:59;;;;;;;;;;;33.70;34.60;;;;;;5029247;28;19928;-84
2022/06/18 12:24:30;;;;;;;;;;;33.70;34.40;;;;;;5043008;28;20782;-83
2022/06/18 12:26:56;;;;;;;;;;;33.90;38.70;;;;;;5045806;28;20022;-80
2022/06/18 12:29:32;;;;;;;;;;;33.70;38.10;;;;;;5048584;28;20139;-81
2022/06/18 12:32:02;;;;;;;;;;;33.70;38.80;;;;;;5053622;28;20004;-80
2022/06/18 12:34:41;;;;;;;;;;;33.80;35.30;;;;;;5050019;28;20544;-79
2022/06/18 12:37:10;;;;;;;;;;;33.60;37.30;;;;;;5047553;28;19921;-83
2022/06/18 12:39:35;;;;;;;;;;;33.60;35.80;;;;;;5047577;28;19963;-82
2022/06/18 12:42:11;;;;;;;;;;;33.60;38.10;;;;;;5042076;28;19920;-82
2022/06/18 12:44:40;;;;;;;;;;;33.30;37.50;;;;;;5025496;28;19936;-81
2022/06/18 12:47:13;;;;;;;;;;;33.90;38.50;;;;;;5035225;28;20286;-82
2022/06/18 12:49:51;;;;;;;;;;;33.60;40.40;;;;;;5038920;28;19912;-82
2022/06/18 12:52:39;;;;;;;;;;;33.70;38.80;;;;;;5039210;28;19909;-81
2022/06/18 12:55:11;;;;;;;;;;;33.70;40.60;;;;;;5043448;28;20280;-81
2022/06/18 12:57:36;;;;;;;;;;;33.70;39.00;;;;;;5039440;28;19916;-81
2022/06/18 13:00:14;;;;;;;;;;;33.70;39.00;;;;;;5037243;28;19917;-81
2022/06/18 13:02:52;;;;;;;;;;;33.80;38.70;;;;;;5043584;28;19917;-82
2022/06/18 13:05:26;;;;;;;;;;;33.70;37.60;;;;;;5030640;28;19913;-82
2022/06/18 13:07:52;;;;;;;;;;;34.60;41.90;;;;;;5030390;28;20007;-81
2022/06/18 13:10:30;;;;;;;;;;;34.10;40.20;;;;;;5042536;28;19931;-81
2022/06/18 13:13:05;;;;;;;;;;;33.90;39.10;;;;;;5041208;28;19935;-81
2022/06/18 13:15:37;;;;;;;;;;;34.60;41.20;;;;;;5028178;28;19992;-82
2022/06/18 13:18:13;;;;;;;;;;;33.80;38.50;;;;;;5037585;28;19916;-81
2022/06/18 13:20:40;;;;;;;;;;;33.80;40.50;;;;;;5036069;28;19920;-81
2022/06/18 13:28:10;;;;;;;;;;;33.70;41.20;;;;;;5037753;28;19917;-81
2022/06/18 13:28:41;;;;;;;;;;;34.20;40.60;;;;;;5038372;28;19932;-81
2022/06/18 13:31:07;;;;;;;;;;;34.00;41.80;;;;;;5019423;28;19909;-80
2022/06/18 13:33:43;;;;;;;;;;;33.80;39.20;;;;;;5033926;28;19913;-80
2022/06/18 13:36:25;;;;;;;;;;;33.80;39.60;;;;;;5033991;28;19917;-80
2022/06/18 13:39:00;;;;;;;;;;;33.90;40.00;;;;;;5038759;28;20384;-82
2022/06/18 13:41:55;;;;;;;;;;;33.90;38.40;;;;;;5033917;28;19975;-80
2022/06/18 13:44:48;;;;;;;;;;;34.30;40.30;;;;;;5033344;28;19991;-80
2022/06/18 13:47:17;;;;;;;;;;;33.70;39.80;;;;;;5035302;28;19916;-81
2022/06/18 13:49:48;;;;;;;;;;;33.90;39.30;;;;;;5025199;28;19924;-80
2022/06/18 13:52:15;;;;;;;;;;;34.00;40.70;;;;;;5032098;28;19909;-81
2022/06/18 13:54:43;;;;;;;;;;;34.30;40.10;;;;;;5038071;28;20261;-81
2022/06/18 13:57:10;;;;;;;;;;;33.80;37.90;;;;;;5037333;28;19928;-82
2022/06/18 13:59:37;;;;;;;;;;;33.70;37.90;;;;;;5038322;28;19948;-82
2022/06/18 14:02:03;;;;;;;;;;;;;;;;;;5033741;28;19920;-81
2022/06/18 14:04:28;;;;;;;;;;;33.60;41.00;;;;;;5028815;28;19952;-82
2022/06/18 14:06:55;;;;;;;;;;;34.10;40.20;;;;;;5033911;28;19917;-83
2022/06/18 14:09:23;;;;;;;;;;;33.80;39.60;;;;;;5035302;28;19919;-84
2022/06/18 14:11:54;;;;;;;;;;;33.70;40.40;;;;;;5029719;28;19939;-82
2022/06/18 14:14:45;;;;;;;;;;;34.60;39.90;;;;;;5026544;28;19917;-81
2022/06/18 14:17:16;;;;;;;;;;;33.80;39.00;;;;;;5023256;28;19917;-80
2022/06/18 14:19:56;;;;;;;;;;;34.30;39.60;;;;;;5020319;28;19909;-82
2022/06/18 14:22:23;;;;;;;;;;;34.20;40.40;;;;;;5026684;28;19921;-83
2022/06/18 14:24:51;;;;;;;;;;;34.50;39.20;;;;;;5027232;28;20935;-84
2022/06/18 14:27:21;;;;;;;;;;;33.80;39.00;;;;;;5032619;28;20377;-82
2022/06/18 14:29:47;;;;;;;;;;;33.90;38.20;;;;;;5028308;28;20497;-85
2022/06/18 14:32:22;;;;;;;;;;;33.70;38.90;;;;;;5024106;28;19924;-82
2022/06/18 14:34:59;;;;;;;;;;;34.40;40.00;;;;;;5028586;28;19908;-81
2022/06/18 14:37:28;;;;;;;;;;;33.80;39.30;;;;;;5031653;28;20100;-82
2022/06/18 14:39:56;;;;;;;;;;;33.70;40.10;;;;;;5033519;28;19909;-82
2022/06/18 14:42:30;;;;;;;;;;;34.20;38.20;;;;;;5030205;28;19921;-82
2022/06/18 14:45:07;;;;;;;;;;;33.70;39.30;;;;;;5031584;28;19909;-82
2022/06/18 14:47:49;;;;;;;;;;;33.90;40.70;;;;;;5030584;28;19921;-84
2022/06/18 14:50:17;;;;;;;;;;;33.70;38.00;;;;;;5027392;28;19919;-83
2022/06/18 14:52:49;;;;;;;;;;;33.70;39.60;;;;;;5034180;28;19917;-82
2022/06/18 14:55:53;;;;;;;;;;;33.80;38.70;;;;;;5034101;28;19908;-82
2022/06/18 14:58:24;;;;;;;;;;;33.70;39.20;;;;;;5041314;28;20513;-83
2022/06/18 15:01:02;;;;;;;;;;;33.60;39.50;;;;;;5048932;28;19916;-83
2022/06/18 15:03:30;;;;;;;;;;;33.60;39.20;;;;;;5032932;28;19913;-82
2022/06/18 15:05:57;;;;;;;;;;;33.90;40.30;;;;;;5034167;28;19913;-82
2022/06/18 15:08:23;;;;;;;;;;;33.70;39.90;;;;;;5035743;28;19917;-83
2022/06/18 15:10:52;;;;;;;;;;;34.40;39.70;;;;;;5032636;28;20277;-84
2022/06/18 15:13:18;;;;;;;;;;;33.90;39.80;;;;;;5031115;28;19944;-83
2022/06/18 15:18:28;;;;;;;;;;;34.20;40.20;;;;;;5031301;28;19920;-83
2022/06/18 15:20:54;;;;;;;;;;;33.90;40.00;;;;;;5026075;28;19916;-82
2022/06/18 15:24:01;;;;;;;;;;;33.50;40.40;;;;;;5028430;28;19924;-83